Time;durP1;ratioP1;P1;durP2;ratioP2;P2;SDS_P1;SDS_P2;PMS_P1;PMS_P2;Temp;Humidity;BMP_temperature;BMP_pressure;BME280_temperature;BME280_humidity;BME280_pressure;Samples;Min_cycle;Max_cycle;Signal;HPM_P1;HPM_P2
2022/04/22 00:01:48;;;;;;;;;;;;;;;13.12;64.16;101528.88;4970381;28;2670;-93
2022/04/22 00:04:15;;;;;;;;;;;;;;;13.10;64.18;101529.06;4958930;29;1885;-93
2022/04/22 00:06:42;;;;;;;;;;;;;;;13.09;64.14;101534.72;4959140;29;1526;-93
2022/04/22 00:09:08;;;;;;;;;;;;;;;13.08;64.18;101533.03;4958739;29;2098;-93
2022/04/22 00:11:35;;;;;;;;;;;;;;;13.08;64.17;101530.31;4959452;29;1254;-93
2022/04/22 00:14:01;;;;;;;;;;;;;;;13.06;64.15;101541.38;4959210;29;1336;-93
2022/04/22 00:16:28;;;;;;;;;;;;;;;13.05;64.10;101525.34;4960048;29;1548;-93
2022/04/22 00:18:55;;;;;;;;;;;;;;;13.03;64.23;101530.13;4959875;28;1907;-94
2022/04/22 00:21:21;;;;;;;;;;;;;;;13.03;64.08;101530.13;4959064;29;1333;-94
2022/04/22 00:23:48;;;;;;;;;;;;;;;13.01;63.98;101533.06;4955940;29;1888;-93
2022/04/22 00:26:14;;;;;;;;;;;;;;;13.00;64.20;101525.13;4958822;29;1576;-93
2022/04/22 00:28:41;;;;;;;;;;;;;;;12.99;64.01;101529.72;4959794;29;1321;-94
2022/04/22 00:31:07;;;;;;;;;;;;;;;12.98;64.12;101533.47;4957901;29;2538;-94
2022/04/22 00:33:34;;;;;;;;;;;;;;;12.97;63.88;101526.41;4961663;28;1205;-93
2022/04/22 00:36:00;;;;;;;;;;;;;;;12.96;63.96;101535.56;4956960;29;1828;-92
2022/04/22 00:38:27;;;;;;;;;;;;;;;12.94;64.06;101533.09;4958338;29;1915;-93
2022/04/22 00:40:55;;;;;;;;;;;;;;;12.93;63.77;101534.09;4959168;29;1918;-93
2022/04/22 00:43:22;;;;;;;;;;;;;;;12.93;63.88;101535.97;4954374;28;1309;-93
2022/04/22 00:45:48;;;;;;;;;;;;;;;12.91;64.06;101533.50;4939766;29;1344;-93
2022/04/22 00:48:15;;;;;;;;;;;;;;;12.90;64.02;101539.09;4939749;29;1303;-93
2022/04/22 00:50:41;;;;;;;;;;;;;;;12.89;63.91;101538.28;4951465;29;1261;-93
2022/04/22 00:53:08;;;;;;;;;;;;;;;12.88;63.85;101533.94;4945464;29;2034;-93
2022/04/22 00:55:34;;;;;;;;;;;;;;;12.87;64.05;101539.53;4958504;29;1155;-93
2022/04/22 00:58:01;;;;;;;;;;;;;;;12.86;63.74;101529.75;4958530;29;1182;-93
2022/04/22 01:00:28;;;;;;;;;;;;;;;12.85;63.83;101530.78;4959536;29;1981;-94
2022/04/22 01:02:54;;;;;;;;;;;;;;;12.82;63.92;101531.22;4958647;29;1549;-93
2022/04/22 01:10:50;;;;;;;;;;;;;;;12.78;63.82;101538.91;4958705;29;1352;-93
2022/04/22 01:13:17;;;;;;;;;;;;;;;12.77;63.76;101533.75;4957840;29;1383;-93
2022/04/22 01:15:43;;;;;;;;;;;;;;;12.76;63.86;101538.28;4957981;28;1166;-94
2022/04/22 01:18:10;;;;;;;;;;;;;;;12.75;63.61;101538.50;4958745;29;1341;-93
2022/04/22 01:20:36;;;;;;;;;;;;;;;12.73;63.67;101536.88;4952254;28;1976;-93
2022/04/22 01:23:03;;;;;;;;;;;;;;;12.72;63.61;101537.06;4943046;29;1952;-93
2022/04/22 01:25:29;;;;;;;;;;;;;;;12.70;63.69;101534.56;4950536;28;1765;-93
2022/04/22 01:27:56;;;;;;;;;;;;;;;12.69;63.66;101530.19;4939260;29;1284;-93
2022/04/22 01:30:23;;;;;;;;;;;;;;;12.67;63.52;101526.88;4958006;29;1534;-93
2022/04/22 01:32:50;;;;;;;;;;;;;;;12.66;63.52;101524.38;4958103;29;1343;-93
2022/04/22 01:35:16;;;;;;;;;;;;;;;12.65;63.67;101522.72;4941844;29;1225;-93
2022/04/22 01:37:43;;;;;;;;;;;;;;;12.64;63.43;101527.28;4957931;29;1244;-94
2022/04/22 01:40:10;;;;;;;;;;;;;;;12.63;63.40;101527.50;4953190;29;1992;-93
2022/04/22 01:42:36;;;;;;;;;;;;;;;12.62;63.40;101525.84;4948419;29;1145;-93
2022/04/22 01:45:03;;;;;;;;;;;;;;;12.60;63.47;101522.53;4938774;29;1303;-93
2022/04/22 01:47:30;;;;;;;;;;;;;;;12.58;63.44;101527.31;4948849;29;1278;-93
2022/04/22 01:49:56;;;;;;;;;;;;;;;12.57;63.66;101522.94;4957774;29;1801;-93
2022/04/22 01:52:23;;;;;;;;;;;;;;;12.56;63.35;101530.22;4957576;29;2312;-93
2022/04/22 01:54:51;;;;;;;;;;;;;;;12.54;63.45;101528.78;4955254;28;1876;-93
2022/04/22 01:57:17;;;;;;;;;;;;;;;12.53;63.31;101529.78;4958249;29;1182;-93
2022/04/22 01:59:44;;;;;;;;;;;;;;;12.52;63.50;101533.53;4957768;29;1919;-93
2022/04/22 02:02:10;;;;;;;;;;;;;;;12.50;63.39;101531.06;4957735;29;1375;-94
2022/04/22 02:04:37;;;;;;;;;;;;;;;12.49;63.28;101532.91;4957355;29;1219;-94
2022/04/22 02:07:04;;;;;;;;;;;;;;;12.46;63.22;101533.31;4957264;28;1883;-93
2022/04/22 02:09:30;;;;;;;;;;;;;;;12.46;63.29;101535.19;4955185;29;2086;-94
2022/04/22 02:11:57;;;;;;;;;;;;;;;12.45;63.34;101530.84;4958055;29;1238;-93
2022/04/22 02:14:24;;;;;;;;;;;;;;;12.43;63.20;101524.81;4954110;28;1181;-94
2022/04/22 02:16:51;;;;;;;;;;;;;;;12.42;63.15;101526.69;4954807;28;4583;-93
2022/04/22 02:19:18;;;;;;;;;;;;;;;12.41;63.28;101525.03;4942958;28;1899;-93
2022/04/22 02:21:44;;;;;;;;;;;;;;;12.40;63.34;101525.22;4940940;29;1895;-93
2022/04/22 02:24:11;;;;;;;;;;;;;;;12.39;63.14;101526.28;4955245;28;1966;-92
2022/04/22 02:29:18;;;;;;;;;;;;;;;12.35;63.27;101523.13;4949601;29;1642;-93
2022/04/22 02:31:45;;;;;;;;;;;;;;;12.33;63.21;101522.53;4952610;28;1806;-93
2022/04/22 02:34:12;;;;;;;;;;;;;;;12.32;63.13;101526.25;4955185;29;1522;-94
2022/04/22 02:36:41;;;;;;;;;;;;;;;12.31;63.14;101521.91;4950129;28;1568;-93
2022/04/22 02:39:07;;;;;;;;;;;;;;;12.30;63.05;101520.25;4950036;29;1951;-93
2022/04/22 02:47:03;;;;;;;;;;;;;;;12.26;63.07;101524.38;4951984;29;2373;-93
2022/04/22 02:49:30;;;;;;;;;;;;;;;12.23;63.01;101522.09;4953600;29;2004;-93
2022/04/22 02:51:56;;;;;;;;;;;;;;;12.23;63.04;101514.81;4949651;29;1150;-93
2022/04/22 02:54:23;;;;;;;;;;;;;;;12.21;63.18;101513.41;4954896;29;1946;-94
2022/04/22 02:56:50;;;;;;;;;;;;;;;12.20;63.01;101509.00;4956198;29;1300;-94
2022/04/22 02:59:17;;;;;;;;;;;;;;;12.18;63.20;101519.22;4942992;29;1620;-93
2022/04/22 03:01:45;;;;;;;;;;;;;;;12.17;62.96;101518.34;4956046;28;1992;-93
2022/04/22 03:04:11;;;;;;;;;;;;;;;12.17;63.05;101512.97;4956120;29;1588;-94
2022/04/22 03:06:38;;;;;;;;;;;;;;;12.14;63.08;101524.16;4955376;28;1499;-93
2022/04/22 03:09:04;;;;;;;;;;;;;;;12.12;63.14;101515.47;4955066;29;1904;-93
2022/04/22 03:11:31;;;;;;;;;;;;;;;12.11;62.99;101516.50;4955760;29;1584;-94
2022/04/22 03:13:58;;;;;;;;;;;;;;;12.11;62.90;101516.50;4955988;28;1310;-93
2022/04/22 03:16:24;;;;;;;;;;;;;;;12.09;62.96;101507.78;4952355;29;1565;-93
2022/04/22 03:18:51;;;;;;;;;;;;;;;12.06;62.82;101505.50;4956589;29;1155;-93
2022/04/22 03:21:18;;;;;;;;;;;;;;;12.05;62.81;101510.03;4955355;29;2108;-92
2022/04/22 03:23:44;;;;;;;;;;;;;;;12.04;63.05;101507.56;4939086;29;2254;-93
2022/04/22 03:26:10;;;;;;;;;;;;;;;12.01;62.88;101500.69;4936817;29;1318;-93
2022/04/22 03:28:37;;;;;;;;;;;;;;;12.00;62.88;101503.59;4939446;29;970;-93
2022/04/22 03:31:03;;;;;;;;;;;;;;;11.99;62.84;101500.06;4951914;29;1910;-94
2022/04/22 03:33:30;;;;;;;;;;;;;;;11.98;62.80;101503.00;4950726;29;1937;-93
2022/04/22 03:35:56;;;;;;;;;;;;;;;11.97;62.96;101502.16;4954425;29;1777;-93
2022/04/22 03:38:23;;;;;;;;;;;;;;;11.97;62.83;101501.31;4954551;29;1862;-93
2022/04/22 03:40:50;;;;;;;;;;;;;;;11.95;62.88;101503.41;4948155;29;1981;-94
2022/04/22 03:43:16;;;;;;;;;;;;;;;11.94;62.83;101499.03;4949619;29;1480;-93
2022/04/22 03:45:43;;;;;;;;;;;;;;;11.93;62.74;101500.06;4955455;29;1542;-93
2022/04/22 03:48:09;;;;;;;;;;;;;;;11.90;62.80;101501.31;4950775;29;1536;-93
2022/04/22 03:50:37;;;;;;;;;;;;;;;11.88;62.66;101499.84;4936325;29;1822;-93
2022/04/22 03:53:03;;;;;;;;;;;;;;;11.86;62.76;101500.06;4953003;29;1971;-93
2022/04/22 03:55:30;;;;;;;;;;;;;;;11.85;62.77;101497.53;4931283;29;1357;-93
2022/04/22 03:58:11;;;;;;;;;;;;;;;11.83;62.64;101501.28;4936631;29;1310;-93
2022/04/22 04:00:39;;;;;;;;;;;;;;;11.81;62.54;101503.34;4939664;29;1979;-94
2022/04/22 04:03:06;;;;;;;;;;;;;;;11.81;62.75;101506.03;4948582;29;1517;-93
2022/04/22 04:05:33;;;;;;;;;;;;;;;11.81;62.52;101510.59;4954596;29;1793;-93
2022/04/22 04:07:59;;;;;;;;;;;;;;;11.78;62.47;101501.03;4955562;29;1300;-93
2022/04/22 04:16:00;;;;;;;;;;;;;;;11.72;62.73;101498.34;4945379;28;1566;-93
2022/04/22 04:18:27;;;;;;;;;;;;;;;11.71;62.60;101504.78;4959188;29;1259;-93
2022/04/22 04:23:38;;;;;;;;;;;;;;;11.68;62.53;101502.50;4954051;29;1627;-93
2022/04/22 04:26:06;;;;;;;;;;;;;;;11.66;62.50;101499.97;4952520;29;1640;-93
2022/04/22 04:28:33;;;;;;;;;;;;;;;11.66;62.65;101505.38;4924535;29;1295;-94
2022/04/22 04:31:00;;;;;;;;;;;;;;;11.64;62.42;101507.44;4956468;29;1905;-93
2022/04/22 04:33:26;;;;;;;;;;;;;;;11.61;62.43;101502.44;4958266;29;1628;-93
2022/04/22 04:35:53;;;;;;;;;;;;;;;11.60;62.46;101506.19;4956891;29;1804;-93
2022/04/22 04:38:20;;;;;;;;;;;;;;;11.58;62.55;101502.84;4946133;29;1573;-93
2022/04/22 04:40:46;;;;;;;;;;;;;;;11.57;62.59;101495.81;4957014;29;1911;-93
2022/04/22 04:43:13;;;;;;;;;;;;;;;11.56;62.60;101504.94;4957800;29;1502;-93
2022/04/22 04:45:39;;;;;;;;;;;;;;;11.54;62.45;101499.75;4958486;29;1989;-93
2022/04/22 04:48:06;;;;;;;;;;;;;;;11.52;62.58;101507.19;4953537;29;4952;-93
2022/04/22 04:50:32;;;;;;;;;;;;;;;11.53;62.54;101505.31;4953852;29;1360;-93
2022/04/22 04:52:59;;;;;;;;;;;;;;;11.52;62.35;101500.97;4956194;29;4711;-93
2022/04/22 04:55:26;;;;;;;;;;;;;;;11.50;62.31;101509.28;4957586;29;1561;-93
2022/04/22 04:57:52;;;;;;;;;;;;;;;11.48;62.51;101505.13;4959379;29;1149;-93
2022/04/22 05:00:19;;;;;;;;;;;;;;;11.48;62.33;101499.72;4959182;29;1969;-93
2022/04/22 05:02:46;;;;;;;;;;;;;;;11.46;62.41;101505.31;4954902;28;1852;-93
2022/04/22 05:05:12;;;;;;;;;;;;;;;11.45;62.24;101502.84;4957861;29;5096;-93
2022/04/22 05:07:39;;;;;;;;;;;;;;;11.44;62.42;101506.53;4954895;29;1828;-93
2022/04/22 05:10:05;;;;;;;;;;;;;;;11.44;62.24;101507.41;4953435;29;1996;-92
2022/04/22 05:12:32;;;;;;;;;;;;;;;11.43;62.36;101504.91;4961814;28;1577;-93
2022/04/22 05:14:58;;;;;;;;;;;;;;;11.42;62.21;101517.56;4970418;28;1161;-93
2022/04/22 05:17:25;;;;;;;;;;;;;;;11.42;62.22;101514.03;4952668;28;2314;-93
2022/04/22 05:19:52;;;;;;;;;;;;;;;11.40;62.16;101502.59;4951209;29;1484;-93
2022/04/22 05:22:18;;;;;;;;;;;;;;;11.39;62.11;101495.56;4950892;29;2077;-91
2022/04/22 05:24:45;;;;;;;;;;;;;;;11.38;62.21;101508.19;4958301;29;1505;-92
2022/04/22 05:27:11;;;;;;;;;;;;;;;11.38;62.21;101508.19;4953777;29;1553;-92
2022/04/22 05:32:40;;;;;;;;;;;;;;;11.35;62.05;101509.44;4950116;29;1891;-92
2022/04/22 05:35:07;;;;;;;;;;;;;;;11.34;61.95;101513.16;4943967;29;1563;-92
2022/04/22 05:37:34;;;;;;;;;;;;;;;11.34;62.12;101515.84;4956343;28;1867;-92
2022/04/22 05:40:00;;;;;;;;;;;;;;;11.34;61.82;101504.22;4957225;28;1646;-92
2022/04/22 05:42:27;;;;;;;;;;;;;;;11.34;61.97;101506.94;4956963;29;1560;-91
2022/04/22 05:44:53;;;;;;;;;;;;;;;11.32;62.00;101503.59;4954951;29;1190;-91
2022/04/22 05:47:20;;;;;;;;;;;;;;;11.33;61.96;101506.09;4956333;28;1956;-91
2022/04/22 05:49:46;;;;;;;;;;;;;;;11.32;61.93;101504.44;4958247;29;1564;-91
2022/04/22 05:52:13;;;;;;;;;;;;;;;11.31;61.83;101502.78;4956803;29;1981;-91
2022/04/22 05:54:40;;;;;;;;;;;;;;;11.30;61.97;101502.97;4954350;29;1933;-91
2022/04/22 05:57:06;;;;;;;;;;;;;;;11.29;61.98;101496.75;4958360;29;1537;-91
2022/04/22 05:59:33;;;;;;;;;;;;;;;11.29;61.77;101504.00;4958025;28;1122;-91
2022/04/22 06:02:00;;;;;;;;;;;;;;;11.30;61.75;101502.97;4952848;29;1920;-92
2022/04/22 06:04:27;;;;;;;;;;;;;;;11.28;61.85;101495.09;4943168;28;1700;-91
2022/04/22 06:06:53;;;;;;;;;;;;;;;11.27;61.77;101498.81;4955761;29;1816;-92
2022/04/22 06:12:04;;;;;;;;;;;;;;;11.27;61.64;101490.72;4937780;29;1725;-92
2022/04/22 06:14:31;;;;;;;;;;;;;;;11.26;61.72;101491.75;4946369;28;4988;-91
2022/04/22 06:16:57;;;;;;;;;;;;;;;11.26;61.69;101499.00;4952811;29;1457;-93
2022/04/22 06:19:24;;;;;;;;;;;;;;;11.25;61.52;101487.41;4953995;29;1501;-92
2022/04/22 06:21:50;;;;;;;;;;;;;;;11.26;61.55;101482.81;4955936;29;1918;-92
2022/04/22 06:24:17;;;;;;;;;;;;;;;11.26;61.57;101494.44;4953684;29;1604;-92
2022/04/22 06:26:43;;;;;;;;;;;;;;;11.25;61.43;101490.09;4953022;29;1460;-92
2022/04/22 06:29:10;;;;;;;;;;;;;;;11.26;61.38;101491.75;4953627;29;1993;-92
2022/04/22 06:31:36;;;;;;;;;;;;;;;11.25;61.54;101484.69;4942924;29;1806;-93
2022/04/22 06:34:03;;;;;;;;;;;;;;;11.24;61.55;101493.00;4956947;29;1215;-92
2022/04/22 06:36:29;;;;;;;;;;;;;;;11.24;61.22;101493.00;4955456;28;1908;-92
2022/04/22 06:38:58;;;;;;;;;;;;;;;11.23;61.29;101492.16;4956685;29;1231;-92
2022/04/22 06:47:07;;;;;;;;;;;;;;;11.23;61.31;101485.94;4901320;29;1989;-92
2022/04/22 06:49:33;;;;;;;;;;;;;;;11.23;61.36;101492.16;4908865;29;2353;-92
2022/04/22 06:52:00;;;;;;;;;;;;;;;11.23;61.16;101488.63;4923526;29;2097;-92
2022/04/22 06:54:27;;;;;;;;;;;;;;;11.22;61.19;101495.88;4955774;29;1670;-92
2022/04/22 06:56:54;;;;;;;;;;;;;;;11.20;61.15;101489.84;4956763;29;1459;-92
2022/04/22 06:59:22;;;;;;;;;;;;;;;11.21;61.19;101488.84;4961729;28;1959;-92
2022/04/22 07:01:48;;;;;;;;;;;;;;;11.21;61.19;101490.72;4944612;29;2069;-92
2022/04/22 07:04:14;;;;;;;;;;;;;;;11.24;61.12;101488.44;4952173;29;2136;-92
2022/04/22 07:06:41;;;;;;;;;;;;;;;11.23;60.97;101478.66;4967235;28;1998;-92
2022/04/22 07:09:08;;;;;;;;;;;;;;;11.21;61.16;101491.53;4958811;28;1279;-92
2022/04/22 07:11:34;;;;;;;;;;;;;;;11.19;60.93;101490.91;4975626;28;1247;-92
2022/04/22 07:14:01;;;;;;;;;;;;;;;11.20;61.15;101491.72;4964211;28;1194;-93
2022/04/22 07:16:27;;;;;;;;;;;;;;;11.19;60.94;101484.69;4955716;29;1851;-92
2022/04/22 07:18:55;;;;;;;;;;;;;;;11.20;60.97;101483.63;4940089;29;1197;-92
2022/04/22 07:21:21;;;;;;;;;;;;;;;11.21;60.86;101486.16;4949167;29;1910;-92
2022/04/22 07:23:48;;;;;;;;;;;;;;;11.22;60.81;101478.88;4952747;29;1206;-92
2022/04/22 07:26:14;;;;;;;;;;;;;;;11.19;60.88;101480.13;4948552;29;1840;-92
2022/04/22 07:28:41;;;;;;;;;;;;;;;11.19;60.94;101474.72;4937289;29;1220;-92
2022/04/22 07:31:08;;;;;;;;;;;;;;;11.20;60.92;101481.78;4948209;29;1134;-93
2022/04/22 07:33:35;;;;;;;;;;;;;;;11.20;60.78;101473.69;4954661;29;1826;-92
2022/04/22 07:36:01;;;;;;;;;;;;;;;11.20;60.81;101472.84;4951350;29;1931;-92
2022/04/22 07:38:28;;;;;;;;;;;;;;;11.21;60.71;101471.84;4938977;29;2297;-92
2022/04/22 07:40:54;;;;;;;;;;;;;;;11.20;60.79;101473.69;4937087;29;2002;-93
2022/04/22 07:48:50;;;;;;;;;;;;;;;11.20;60.67;101462.06;4956057;29;1173;-93
2022/04/22 07:51:16;;;;;;;;;;;;;;;11.21;60.47;101466.44;4954756;28;1943;-92
2022/04/22 07:53:43;;;;;;;;;;;;;;;11.20;60.70;101465.59;4959780;29;1220;-92
2022/04/22 07:56:10;;;;;;;;;;;;;;;11.20;60.73;101459.38;4959618;28;1343;-93
2022/04/22 07:58:36;;;;;;;;;;;;;;;11.19;60.71;101465.81;4960347;28;1041;-93
2022/04/22 08:01:03;;;;;;;;;;;;;;;11.20;60.43;101460.19;4959977;29;1887;-93
2022/04/22 08:03:31;;;;;;;;;;;;;;;11.21;60.51;101467.28;4959342;29;1290;-93
2022/04/22 08:05:57;;;;;;;;;;;;;;;11.22;60.56;101460.00;4959180;29;1698;-93
2022/04/22 08:08:28;;;;;;;;;;;;;;;11.23;60.72;101456.28;4959451;29;1277;-93
2022/04/22 08:10:55;;;;;;;;;;;;;;;11.21;60.52;101448.41;4956169;28;4252;-93
2022/04/22 08:13:21;;;;;;;;;;;;;;;11.21;60.54;101455.66;4944817;29;1354;-93
2022/04/22 08:15:48;;;;;;;;;;;;;;;11.22;60.52;101450.06;4939589;29;1941;-93
2022/04/22 08:18:15;;;;;;;;;;;;;;;11.22;60.56;101463.53;4940218;29;1207;-93
2022/04/22 08:20:41;;;;;;;;;;;;;;;11.24;60.56;101455.25;4958308;29;1980;-93
2022/04/22 08:23:08;;;;;;;;;;;;;;;11.23;60.54;101461.66;4958860;29;1358;-93
2022/04/22 08:25:34;;;;;;;;;;;;;;;11.22;60.56;101447.34;4958961;29;1317;-93
2022/04/22 08:28:02;;;;;;;;;;;;;;;11.23;60.69;101453.56;4959308;29;1294;-93
2022/04/22 08:30:29;;;;;;;;;;;;;;;11.24;60.70;101441.78;4947903;29;1902;-93
2022/04/22 08:32:55;;;;;;;;;;;;;;;11.25;60.61;101446.94;4960059;28;1259;-93
2022/04/22 08:35:22;;;;;;;;;;;;;;;11.26;60.54;101443.22;4952047;28;1937;-93
2022/04/22 08:37:48;;;;;;;;;;;;;;;11.27;60.44;101446.75;4958900;29;1219;-93
2022/04/22 08:40:15;;;;;;;;;;;;;;;11.27;60.54;101444.88;4955547;29;1226;-93
2022/04/22 08:42:41;;;;;;;;;;;;;;;11.27;60.67;101442.19;4942436;29;2338;-93
2022/04/22 08:45:08;;;;;;;;;;;;;;;11.27;60.41;101442.19;4959034;29;1345;-93
2022/04/22 08:50:19;;;;;;;;;;;;;;;11.30;60.48;101449.88;4957978;29;1921;-93
2022/04/22 08:52:46;;;;;;;;;;;;;;;11.30;60.46;101441.78;4942832;29;1329;-93
2022/04/22 08:55:13;;;;;;;;;;;;;;;11.30;60.48;101447.19;4958680;29;1353;-93
2022/04/22 08:57:40;;;;;;;;;;;;;;;11.32;60.61;101449.66;4958830;29;1276;-93
2022/04/22 09:00:07;;;;;;;;;;;;;;;11.30;60.53;101441.78;4958093;29;1890;-93
2022/04/22 09:02:34;;;;;;;;;;;;;;;11.32;60.53;101446.97;4974074;28;1911;-93
2022/04/22 09:05:00;;;;;;;;;;;;;;;11.32;60.52;101445.13;4955000;29;2198;-93
2022/04/22 09:07:27;;;;;;;;;;;;;;;11.33;60.57;101441.38;4956709;28;1311;-93
2022/04/22 09:09:53;;;;;;;;;;;;;;;11.34;60.56;101440.34;4938889;29;1823;-93
2022/04/22 09:12:20;;;;;;;;;;;;;;;11.36;60.66;101448.25;4939149;29;1389;-94
2022/04/22 09:14:47;;;;;;;;;;;;;;;11.36;60.49;101442.84;4938812;29;1329;-93
2022/04/22 09:17:14;;;;;;;;;;;;;;;11.35;60.49;101439.31;4939048;29;1403;-93
2022/04/22 09:19:40;;;;;;;;;;;;;;;11.34;60.58;101432.25;4942393;29;1840;-93
2022/04/22 09:22:07;;;;;;;;;;;;;;;11.36;60.63;101429.34;4944053;29;1973;-93
2022/04/22 09:24:33;;;;;;;;;;;;;;;11.36;60.58;101422.09;4957896;29;1140;-93
2022/04/22 09:27:01;;;;;;;;;;;;;;;11.36;60.58;101421.25;4957913;29;1219;-93
2022/04/22 09:29:28;;;;;;;;;;;;;;;11.38;60.62;101416.47;4958338;29;1351;-93
2022/04/22 09:31:55;;;;;;;;;;;;;;;11.38;60.73;101413.78;4956987;29;1884;-93
2022/04/22 09:34:21;;;;;;;;;;;;;;;11.39;60.56;101410.06;4948024;28;1212;-93
2022/04/22 09:42:39;;;;;;;;;;;;;;;11.39;60.72;101403.84;4957731;29;1914;-93
2022/04/22 09:45:06;;;;;;;;;;;;;;;11.39;60.88;101407.38;4957584;29;1173;-93
2022/04/22 09:47:33;;;;;;;;;;;;;;;11.40;60.80;101410.91;4957784;29;1472;-93
2022/04/22 09:49:59;;;;;;;;;;;;;;;11.42;60.67;101406.13;4955201;29;1865;-94
2022/04/22 09:52:26;;;;;;;;;;;;;;;11.42;60.97;101395.34;4955620;29;1817;-94
2022/04/22 09:54:53;;;;;;;;;;;;;;;11.43;60.97;101402.38;4954433;29;1865;-93
2022/04/22 09:57:19;;;;;;;;;;;;;;;11.43;60.94;101394.31;4948054;28;2142;-93
2022/04/22 09:59:46;;;;;;;;;;;;;;;11.44;61.04;101390.56;4955452;29;1699;-94
2022/04/22 10:02:13;;;;;;;;;;;;;;;11.44;61.01;101388.72;4958397;28;1903;-94
2022/04/22 10:04:39;;;;;;;;;;;;;;;11.46;60.86;101385.78;4957864;29;1348;-93
2022/04/22 10:07:07;;;;;;;;;;;;;;;11.46;61.06;101375.84;4956097;28;1904;-93
2022/04/22 10:09:33;;;;;;;;;;;;;;;11.47;60.89;101371.25;4955513;29;1975;-93
2022/04/22 10:12:00;;;;;;;;;;;;;;;11.47;61.00;101373.97;4953445;29;2252;-93
2022/04/22 10:14:26;;;;;;;;;;;;;;;11.48;60.95;101362.16;4957125;28;1181;-93
2022/04/22 10:16:53;;;;;;;;;;;;;;;11.46;61.11;101362.34;4956474;29;1811;-94
2022/04/22 10:19:19;;;;;;;;;;;;;;;11.49;61.15;101358.41;4957275;29;1233;-93
2022/04/22 10:21:46;;;;;;;;;;;;;;;11.49;61.11;101361.09;4971479;28;1910;-94
2022/04/22 10:24:13;;;;;;;;;;;;;;;11.49;61.13;101351.16;4957209;29;1321;-94
2022/04/22 10:26:39;;;;;;;;;;;;;;;11.50;61.19;101355.53;4949348;29;1734;-94
2022/04/22 10:29:06;;;;;;;;;;;;;;;11.54;61.28;101361.34;4956774;28;1369;-93
2022/04/22 10:31:32;;;;;;;;;;;;;;;11.57;61.07;101363.63;4956822;28;1342;-94
2022/04/22 10:33:59;;;;;;;;;;;;;;;11.55;61.14;101344.91;4956606;29;1189;-94
2022/04/22 10:36:27;;;;;;;;;;;;;;;11.55;61.32;101330.59;4950896;29;1829;-93
2022/04/22 10:38:53;;;;;;;;;;;;;;;11.57;61.29;101342.03;4951626;29;1819;-93
2022/04/22 10:41:19;;;;;;;;;;;;;;;11.58;61.33;101341.81;4951912;29;5269;-94
2022/04/22 10:47:13;;;;;;;;;;;;;;;11.58;61.51;101335.59;4949961;29;1729;-93
2022/04/22 10:49:17;;;;;;;;;;;;;;;11.63;61.44;101335.81;4951535;29;1564;-92
2022/04/22 10:51:44;;;;;;;;;;;;;;;11.64;61.39;101333.94;4960813;28;1866;-90
2022/04/22 10:54:10;;;;;;;;;;;;;;;11.65;61.53;101332.88;4955515;29;1438;-90
2022/04/22 10:56:37;;;;;;;;;;;;;;;11.66;61.48;101323.78;4955561;29;1876;-90
2022/04/22 10:59:03;;;;;;;;;;;;;;;11.67;61.54;101320.03;4957046;28;1157;-90
2022/04/22 11:01:31;;;;;;;;;;;;;;;11.66;61.35;101321.91;4962165;28;1914;-90
2022/04/22 11:03:57;;;;;;;;;;;;;;;11.69;61.46;101315.25;4952867;29;1391;-90
2022/04/22 11:06:24;;;;;;;;;;;;;;;11.68;61.69;101311.72;4954798;29;1824;-91
2022/04/22 11:08:51;;;;;;;;;;;;;;;11.70;61.76;101304.25;4955959;29;1187;-91
2022/04/22 11:11:17;;;;;;;;;;;;;;;11.70;61.72;101306.09;4952423;29;2941;-91
2022/04/22 11:13:44;;;;;;;;;;;;;;;11.72;61.64;101299.47;4948448;29;1231;-91
2022/04/22 11:16:11;;;;;;;;;;;;;;;11.74;61.55;101299.28;4945599;29;1862;-91
2022/04/22 11:18:39;;;;;;;;;;;;;;;11.76;61.72;101302.56;4955988;29;1796;-92
2022/04/22 11:21:05;;;;;;;;;;;;;;;11.78;61.66;101295.09;4942122;29;1627;-92
2022/04/22 11:23:32;;;;;;;;;;;;;;;12.03;60.61;101296.16;4948551;29;1915;-92
2022/04/22 11:25:59;;;;;;;;;;;;;;;11.96;60.36;101287.22;4936705;28;1410;-94
2022/04/22 11:28:25;;;;;;;;;;;;;;;11.90;60.50;101284.53;4951160;29;1900;-94
2022/04/22 11:30:52;;;;;;;;;;;;;;;11.89;60.81;101296.38;4946922;28;2040;-95
2022/04/22 11:33:19;;;;;;;;;;;;;;;11.89;61.19;101296.38;4956065;29;1186;-94
2022/04/22 11:35:47;;;;;;;;;;;;;;;11.88;61.30;101294.69;4956048;29;1555;-94
2022/04/22 11:38:13;;;;;;;;;;;;;;;11.88;61.54;101282.03;4954135;29;1900;-93
2022/04/22 11:40:40;;;;;;;;;;;;;;;11.89;61.52;101277.50;4936640;29;1950;-95
2022/04/22 11:43:06;;;;;;;;;;;;;;;11.91;61.71;101278.94;4944042;29;1899;-94
2022/04/22 11:45:33;;;;;;;;;;;;;;;11.92;61.50;101271.66;4950699;29;2053;-94
2022/04/22 11:47:59;;;;;;;;;;;;;;;11.94;61.71;101280.38;4944061;29;2027;-93
2022/04/22 11:50:26;;;;;;;;;;;;;;;11.95;61.64;101274.75;4951994;29;2003;-95
2022/04/22 11:52:54;;;;;;;;;;;;;;;11.97;61.65;101272.69;4951711;29;1880;-94
2022/04/22 11:55:20;;;;;;;;;;;;;;;11.99;61.72;101264.38;4938166;29;2089;-94
2022/04/22 11:57:48;;;;;;;;;;;;;;;12.01;61.77;101270.41;4949422;29;2162;-94
2022/04/22 12:05:43;;;;;;;;;;;;;;;12.04;61.98;101257.28;4954354;29;1646;-93
2022/04/22 12:08:11;;;;;;;;;;;;;;;12.06;62.14;101262.50;4938650;29;2298;-94
2022/04/22 12:10:37;;;;;;;;;;;;;;;12.08;62.10;101262.28;4951405;28;1868;-93
2022/04/22 12:13:04;;;;;;;;;;;;;;;12.11;62.27;101256.44;4942765;28;1982;-94
2022/04/22 12:15:30;;;;;;;;;;;;;;;12.10;62.26;101257.50;4940086;29;1725;-94
2022/04/22 12:17:58;;;;;;;;;;;;;;;12.13;62.07;101257.06;4950885;28;1893;-94
2022/04/22 12:20:25;;;;;;;;;;;;;;;12.15;62.08;101258.53;4956602;29;1274;-94
2022/04/22 12:22:52;;;;;;;;;;;;;;;12.18;62.11;101252.69;4950880;28;2185;-94
2022/04/22 12:25:20;;;;;;;;;;;;;;;12.18;62.24;101246.47;4949460;28;1543;-94
2022/04/22 12:27:47;;;;;;;;;;;;;;;12.21;62.43;101243.34;4953867;28;2086;-95
2022/04/22 12:30:14;;;;;;;;;;;;;;;12.21;62.30;101241.47;4940944;29;1672;-94
2022/04/22 12:32:41;;;;;;;;;;;;;;;12.23;62.25;101244.75;4952179;29;1685;-94
2022/04/22 12:35:07;;;;;;;;;;;;;;;12.25;62.52;101250.78;4951303;29;2361;-94
2022/04/22 12:37:34;;;;;;;;;;;;;;;12.27;62.51;101243.31;4949630;28;1788;-94
2022/04/22 12:40:00;;;;;;;;;;;;;;;12.28;62.37;101239.53;4955044;28;1675;-94
2022/04/22 12:42:27;;;;;;;;;;;;;;;12.31;62.44;101240.16;4947347;29;2116;-94
2022/04/22 12:53:02;;;;;;;;;;;;;;;12.38;62.70;101225.59;4958977;29;1736;-94
2022/04/22 12:55:28;;;;;;;;;;;;;;;12.40;62.60;101222.66;4959281;29;1174;-94
2022/04/22 12:57:54;;;;;;;;;;;;;;;12.41;62.61;101222.47;4958391;29;1358;-94
2022/04/22 13:00:21;;;;;;;;;;;;;;;12.43;62.76;101224.94;4957879;29;1768;-94
2022/04/22 13:02:47;;;;;;;;;;;;;;;12.45;62.72;101220.97;4966918;28;1987;-94
2022/04/22 13:05:14;;;;;;;;;;;;;;;12.47;62.72;101216.19;4953304;29;1355;-94
2022/04/22 13:07:41;;;;;;;;;;;;;;;12.49;62.69;101214.09;4954532;29;1575;-94
2022/04/22 13:10:08;;;;;;;;;;;;;;;12.50;62.62;101213.06;4939304;29;1275;-94
2022/04/22 13:12:39;;;;;;;;;;;;;;;12.52;62.88;101220.13;4949488;28;2312;-94
2022/04/22 13:15:05;;;;;;;;;;;;;;;12.54;62.80;101207.22;4954414;29;1904;-95
2022/04/22 13:17:32;;;;;;;;;;;;;;;12.55;62.75;101207.00;4944941;29;1959;-95
2022/04/22 13:19:59;;;;;;;;;;;;;;;12.57;62.81;101201.38;4957672;29;1496;-95
2022/04/22 13:22:25;;;;;;;;;;;;;;;12.60;62.96;101199.06;4957875;29;1906;-94
2022/04/22 13:24:51;;;;;;;;;;;;;;;12.61;62.86;101195.31;4958225;29;1409;-95
2022/04/22 13:27:18;;;;;;;;;;;;;;;12.63;62.82;101190.53;4954555;28;1527;-96
2022/04/22 13:29:44;;;;;;;;;;;;;;;12.66;63.07;101181.16;4949761;28;1724;-95
2022/04/22 13:32:11;;;;;;;;;;;;;;;12.67;62.88;101186.34;4967584;28;1500;-96
2022/04/22 13:34:37;;;;;;;;;;;;;;;12.69;62.98;101184.25;4955415;29;1680;-94
2022/04/22 13:37:04;;;;;;;;;;;;;;;12.72;63.02;101185.69;4964404;28;1491;-95
2022/04/22 13:39:31;;;;;;;;;;;;;;;12.73;63.21;101177.38;4957586;29;1736;-93
2022/04/22 13:41:57;;;;;;;;;;;;;;;12.76;63.18;101183.38;4954754;28;2536;-95
2022/04/22 13:52:36;;;;;;;;;;;;;;;12.84;63.19;101156.91;4950946;29;1574;-94
2022/04/22 13:55:03;;;;;;;;;;;;;;;12.85;63.39;101161.28;4938730;29;1439;-94
2022/04/22 13:57:30;;;;;;;;;;;;;;;12.88;63.38;101151.88;4953747;29;1705;-94